sensor_id;sensor_type;location;lat;lon;timestamp;pressure;altitude;pressure_sealevel;temperature;humidity
53689;BME280;39583;54.682;30.662;2023-02-25T07:33:24;97177.44;;;2.48;100.00
53689;BME280;39583;54.682;30.662;2023-02-25T07:35:53;97175.22;;;2.75;100.00
53689;BME280;39583;54.682;30.662;2023-02-25T07:38:19;97167.09;;;3.00;100.00
53689;BME280;39583;54.682;30.662;2023-02-25T07:40:45;97166.53;;;3.21;100.00
53689;BME280;39583;54.682;30.662;2023-02-25T07:43:11;97166.91;;;3.36;100.00
53689;BME280;39583;54.682;30.662;2023-02-25T07:45:37;97163.47;;;3.47;100.00
53689;BME280;39583;54.682;30.662;2023-02-25T07:48:04;97157.34;;;3.59;100.00
53689;BME280;39583;54.682;30.662;2023-02-25T07:50:30;97152.13;;;3.64;100.00
53689;BME280;39583;54.682;30.662;2023-02-25T07:52:56;97149.34;;;3.70;100.00
53689;BME280;39583;54.682;30.662;2023-02-25T07:55:23;97152.69;;;3.77;100.00
53689;BME280;39583;54.682;30.662;2023-02-25T07:57:49;97159.53;;;3.85;100.00
53689;BME280;39583;54.682;30.662;2023-02-25T08:00:15;97165.31;;;3.82;100.00
53689;BME280;39583;54.682;30.662;2023-02-25T08:02:43;97167.63;;;3.78;100.00
53689;BME280;39583;54.682;30.662;2023-02-25T08:05:10;97162.31;;;3.78;100.00
53689;BME280;39583;54.682;30.662;2023-02-25T08:07:36;97169.59;;;3.83;100.00
53689;BME280;39583;54.682;30.662;2023-02-25T08:10:03;97169.47;;;3.90;100.00
53689;BME280;39583;54.682;30.662;2023-02-25T08:12:30;97160.22;;;4.04;100.00
53689;BME280;39583;54.682;30.662;2023-02-25T08:14:56;97163.53;;;4.11;100.00
53689;BME280;39583;54.682;30.662;2023-02-25T08:17:27;97160.88;;;4.11;100.00
53689;BME280;39583;54.682;30.662;2023-02-25T08:19:57;97162.00;;;4.15;100.00
53689;BME280;39583;54.682;30.662;2023-02-25T08:22:23;97151.00;;;4.23;100.00
53689;BME280;39583;54.682;30.662;2023-02-25T08:24:49;97150.03;;;4.29;100.00
53689;BME280;39583;54.682;30.662;2023-02-25T08:27:15;97151.31;;;4.38;100.00
53689;BME280;39583;54.682;30.662;2023-02-25T08:29:41;97139.84;;;4.38;100.00
53689;BME280;39583;54.682;30.662;2023-02-25T08:32:07;97138.47;;;4.35;100.00
53689;BME280;39583;54.682;30.662;2023-02-25T08:34:34;97132.81;;;4.32;100.00
53689;BME280;39583;54.682;30.662;2023-02-25T08:37:00;97127.47;;;4.32;100.00
53689;BME280;39583;54.682;30.662;2023-02-25T08:39:26;97128.53;;;4.31;100.00
53689;BME280;39583;54.682;30.662;2023-02-25T08:41:52;97119.84;;;4.24;100.00
53689;BME280;39583;54.682;30.662;2023-02-25T08:44:18;97133.31;;;4.17;100.00
53689;BME280;39583;54.682;30.662;2023-02-25T08:46:45;97134.34;;;4.16;100.00
53689;BME280;39583;54.682;30.662;2023-02-25T08:49:12;97127.38;;;4.15;100.00
53689;BME280;39583;54.682;30.662;2023-02-25T08:51:38;97123.34;;;4.12;100.00
53689;BME280;39583;54.682;30.662;2023-02-25T08:54:08;97134.25;;;4.11;100.00
53689;BME280;39583;54.682;30.662;2023-02-25T08:56:36;97129.72;;;4.11;100.00
53689;BME280;39583;54.682;30.662;2023-02-25T08:59:03;97119.88;;;4.12;100.00
53689;BME280;39583;54.682;30.662;2023-02-25T09:01:29;97112.81;;;4.18;100.00
53689;BME280;39583;54.682;30.662;2023-02-25T09:04:17;97124.94;;;4.25;100.00
53689;BME280;39583;54.682;30.662;2023-02-25T09:06:44;97118.06;;;4.29;100.00
53689;BME280;39583;54.682;30.662;2023-02-25T09:09:13;97116.34;;;4.35;100.00
53689;BME280;39583;54.682;30.662;2023-02-25T09:11:40;97123.97;;;4.43;100.00
53689;BME280;39583;54.682;30.662;2023-02-25T09:14:07;97129.38;;;4.48;100.00
53689;BME280;39583;54.682;30.662;2023-02-25T09:16:33;97114.13;;;4.43;100.00
53689;BME280;39583;54.682;30.662;2023-02-25T09:18:59;97112.03;;;4.46;100.00
53689;BME280;39583;54.682;30.662;2023-02-25T09:21:25;97109.69;;;4.49;100.00
53689;BME280;39583;54.682;30.662;2023-02-25T09:23:51;97111.28;;;4.50;100.00
53689;BME280;39583;54.682;30.662;2023-02-25T09:26:19;97115.63;;;4.39;100.00
53689;BME280;39583;54.682;30.662;2023-02-25T09:28:46;97113.38;;;4.20;100.00
53689;BME280;39583;54.682;30.662;2023-02-25T09:31:13;97103.91;;;4.12;100.00
53689;BME280;39583;54.682;30.662;2023-02-25T09:33:40;97104.06;;;4.05;100.00
53689;BME280;39583;54.682;30.662;2023-02-25T09:38:34;97104.72;;;4.01;100.00
53689;BME280;39583;54.682;30.662;2023-02-25T09:41:01;97092.72;;;3.98;100.00
53689;BME280;39583;54.682;30.662;2023-02-25T09:43:30;97093.03;;;4.02;100.00
53689;BME280;39583;54.682;30.662;2023-02-25T09:46:07;97085.03;;;4.02;100.00
53689;BME280;39583;54.682;30.662;2023-02-25T09:48:49;97078.31;;;4.11;100.00
53689;BME280;39583;54.682;30.662;2023-02-25T09:51:21;97077.84;;;4.14;100.00
53689;BME280;39583;54.682;30.662;2023-02-25T09:54:36;97070.53;;;4.21;100.00
53689;BME280;39583;54.682;30.662;2023-02-25T09:56:38;97065.63;;;4.30;100.00
53689;BME280;39583;54.682;30.662;2023-02-25T09:59:05;97068.38;;;4.35;100.00
53689;BME280;39583;54.682;30.662;2023-02-25T10:01:38;97058.22;;;4.32;100.00
53689;BME280;39583;54.682;30.662;2023-02-25T10:06:46;97055.63;;;4.37;100.00
53689;BME280;39583;54.682;30.662;2023-02-25T10:23:24;97021.13;;;4.59;100.00
53689;BME280;39583;54.682;30.662;2023-02-25T10:28:26;96999.88;;;4.64;100.00
53689;BME280;39583;54.682;30.662;2023-02-25T10:31:06;97003.81;;;4.78;100.00
53689;BME280;39583;54.682;30.662;2023-02-25T10:33:35;96987.13;;;4.83;100.00
53689;BME280;39583;54.682;30.662;2023-02-25T10:36:07;96988.56;;;4.90;100.00
53689;BME280;39583;54.682;30.662;2023-02-25T10:38:37;96979.41;;;5.03;100.00
53689;BME280;39583;54.682;30.662;2023-02-25T10:41:05;96974.16;;;5.08;100.00
53689;BME280;39583;54.682;30.662;2023-02-25T10:43:33;96966.53;;;5.17;100.00
53689;BME280;39583;54.682;30.662;2023-02-25T10:46:12;96948.25;;;5.25;100.00
53689;BME280;39583;54.682;30.662;2023-02-25T10:48:41;96943.53;;;5.32;100.00
53689;BME280;39583;54.682;30.662;2023-02-25T10:51:11;96950.03;;;5.42;100.00
53689;BME280;39583;54.682;30.662;2023-02-25T10:53:40;96942.69;;;5.49;100.00
53689;BME280;39583;54.682;30.662;2023-02-25T10:56:27;96933.44;;;5.35;99.82
53689;BME280;39583;54.682;30.662;2023-02-25T10:59:07;96929.50;;;5.20;98.48
53689;BME280;39583;54.682;30.662;2023-02-25T11:01:37;96931.72;;;5.07;99.05
53689;BME280;39583;54.682;30.662;2023-02-25T11:04:10;96927.63;;;4.99;99.13
53689;BME280;39583;54.682;30.662;2023-02-25T11:06:40;96922.09;;;4.84;99.08
53689;BME280;39583;54.682;30.662;2023-02-25T11:12:14;96919.91;;;4.64;99.48
53689;BME280;39583;54.682;30.662;2023-02-25T11:14:42;96908.84;;;4.55;99.56
53689;BME280;39583;54.682;30.662;2023-02-25T11:20:05;96907.97;;;4.16;98.76
53689;BME280;39583;54.682;30.662;2023-02-25T11:22:37;96904.66;;;4.09;99.67
53689;BME280;39583;54.682;30.662;2023-02-25T11:25:29;96905.53;;;4.14;100.00
53689;BME280;39583;54.682;30.662;2023-02-25T11:27:57;96895.63;;;4.10;100.00
53689;BME280;39583;54.682;30.662;2023-02-25T11:30:31;96889.63;;;4.03;100.00
53689;BME280;39583;54.682;30.662;2023-02-25T11:33:03;96889.31;;;3.99;100.00
53689;BME280;39583;54.682;30.662;2023-02-25T11:35:35;96883.44;;;3.97;100.00
53689;BME280;39583;54.682;30.662;2023-02-25T11:40:50;96881.09;;;4.01;100.00
53689;BME280;39583;54.682;30.662;2023-02-25T11:43:32;96878.59;;;3.94;100.00
53689;BME280;39583;54.682;30.662;2023-02-25T11:46:02;96882.75;;;3.90;100.00
53689;BME280;39583;54.682;30.662;2023-02-25T11:51:29;96888.06;;;3.73;100.00
53689;BME280;39583;54.682;30.662;2023-02-25T11:54:23;96885.66;;;3.72;100.00
53689;BME280;39583;54.682;30.662;2023-02-25T11:59:35;96876.81;;;3.54;100.00
53689;BME280;39583;54.682;30.662;2023-02-25T12:10:20;96862.31;;;3.34;100.00
53689;BME280;39583;54.682;30.662;2023-02-25T12:34:42;96841.03;;;3.05;100.00
53689;BME280;39583;54.682;30.662;2023-02-25T12:43:29;96828.34;;;2.95;99.98
53689;BME280;39583;54.682;30.662;2023-02-25T12:49:04;96815.94;;;3.13;100.00
53689;BME280;39583;54.682;30.662;2023-02-25T13:03:06;96795.03;;;3.05;99.54
53689;BME280;39583;54.682;30.662;2023-02-25T13:19:53;96769.31;;;2.93;99.74
53689;BME280;39583;54.682;30.662;2023-02-25T13:28:24;96774.28;;;2.90;99.51
53689;BME280;39583;54.682;30.662;2023-02-25T13:31:29;96769.06;;;2.95;99.80
53689;BME280;39583;54.682;30.662;2023-02-25T13:33:53;96770.69;;;2.96;99.76
53689;BME280;39583;54.682;30.662;2023-02-25T13:45:26;96772.91;;;2.87;99.39
53689;BME280;39583;54.682;30.662;2023-02-25T13:48:21;96767.16;;;2.79;99.24
53689;BME280;39583;54.682;30.662;2023-02-25T14:07:24;96760.63;;;2.58;99.82
53689;BME280;39583;54.682;30.662;2023-02-25T14:23:49;96758.72;;;2.42;99.75
53689;BME280;39583;54.682;30.662;2023-02-25T14:26:22;96747.50;;;2.40;100.00
53689;BME280;39583;54.682;30.662;2023-02-25T14:32:12;96748.22;;;2.35;99.82
53689;BME280;39583;54.682;30.662;2023-02-25T14:34:45;96735.16;;;2.33;100.00
53689;BME280;39583;54.682;30.662;2023-02-25T14:43:25;96732.06;;;2.36;100.00
53689;BME280;39583;54.682;30.662;2023-02-25T14:46:12;96746.13;;;2.37;100.00
53689;BME280;39583;54.682;30.662;2023-02-25T14:49:26;96738.75;;;2.39;100.00
53689;BME280;39583;54.682;30.662;2023-02-25T15:22:27;96743.47;;;2.49;100.00
53689;BME280;39583;54.682;30.662;2023-02-25T15:30:23;96739.78;;;2.38;100.00
53689;BME280;39583;54.682;30.662;2023-02-25T15:38:09;96741.75;;;2.31;100.00
53689;BME280;39583;54.682;30.662;2023-02-25T15:40:44;96745.44;;;2.30;100.00
53689;BME280;39583;54.682;30.662;2023-02-25T15:45:39;96743.84;;;2.29;100.00
53689;BME280;39583;54.682;30.662;2023-02-25T16:01:00;96748.44;;;2.33;100.00
53689;BME280;39583;54.682;30.662;2023-02-25T16:06:19;96744.28;;;2.38;100.00
53689;BME280;39583;54.682;30.662;2023-02-25T16:11:41;96739.44;;;2.34;100.00
53689;BME280;39583;54.682;30.662;2023-02-25T16:16:47;96748.78;;;2.37;100.00
53689;BME280;39583;54.682;30.662;2023-02-25T16:19:20;96747.50;;;2.40;100.00
53689;BME280;39583;54.682;30.662;2023-02-25T16:21:59;96756.28;;;2.40;100.00
53689;BME280;39583;54.682;30.662;2023-02-25T16:24:27;96753.06;;;2.38;100.00
53689;BME280;39583;54.682;30.662;2023-02-25T16:27:00;96748.00;;;2.36;100.00
53689;BME280;39583;54.682;30.662;2023-02-25T16:40:27;96746.59;;;2.34;100.00
53689;BME280;39583;54.682;30.662;2023-02-25T16:42:56;96757.00;;;2.35;100.00
53689;BME280;39583;54.682;30.662;2023-02-25T16:45:29;96748.00;;;2.36;100.00
53689;BME280;39583;54.682;30.662;2023-02-25T16:48:00;96753.06;;;2.38;100.00
53689;BME280;39583;54.682;30.662;2023-02-25T16:50:31;96744.84;;;2.40;100.00
53689;BME280;39583;54.682;30.662;2023-02-25T16:52:59;96753.16;;;2.43;100.00
53689;BME280;39583;54.682;30.662;2023-02-25T16:55:29;96746.81;;;2.44;100.00
53689;BME280;39583;54.682;30.662;2023-02-25T17:00:33;96743.09;;;2.45;100.00
53689;BME280;39583;54.682;30.662;2023-02-25T17:03:00;96743.66;;;2.47;100.00
53689;BME280;39583;54.682;30.662;2023-02-25T17:05:32;96742.28;;;2.45;100.00
53689;BME280;39583;54.682;30.662;2023-02-25T17:08:01;96736.66;;;2.41;100.00
53689;BME280;39583;54.682;30.662;2023-02-25T17:10:49;96742.78;;;2.42;100.00
53689;BME280;39583;54.682;30.662;2023-02-25T17:13:31;96744.84;;;2.40;100.00
53689;BME280;39583;54.682;30.662;2023-02-25T17:15:59;96740.59;;;2.39;100.00
53689;BME280;39583;54.682;30.662;2023-02-25T17:18:43;96739.78;;;2.38;100.00
53689;BME280;39583;54.682;30.662;2023-02-25T17:23:52;96736.88;;;2.40;100.00
53689;BME280;39583;54.682;30.662;2023-02-25T17:26:19;96736.66;;;2.41;100.00
53689;BME280;39583;54.682;30.662;2023-02-25T17:28:49;96728.69;;;2.41;100.00
53689;BME280;39583;54.682;30.662;2023-02-25T17:31:20;96717.03;;;2.42;100.00
53689;BME280;39583;54.682;30.662;2023-02-25T17:36:23;96716.53;;;2.45;100.00
53689;BME280;39583;54.682;30.662;2023-02-25T17:38:54;96724.28;;;2.47;100.00
53689;BME280;39583;54.682;30.662;2023-02-25T17:41:22;96727.16;;;2.45;100.00
53689;BME280;39583;54.682;30.662;2023-02-25T17:43:49;96727.41;;;2.44;100.00
53689;BME280;39583;54.682;30.662;2023-02-25T17:49:26;96722.41;;;2.47;100.00
53689;BME280;39583;54.682;30.662;2023-02-25T17:51:56;96720.25;;;2.44;100.00
53689;BME280;39583;54.682;30.662;2023-02-25T17:54:24;96715.50;;;2.46;100.00
53689;BME280;39583;54.682;30.662;2023-02-25T17:56:58;96719.56;;;2.49;100.00
53689;BME280;39583;54.682;30.662;2023-02-25T18:02:02;96720.13;;;2.51;100.00
53689;BME280;39583;54.682;30.662;2023-02-25T18:04:49;96714.91;;;2.56;100.00
53689;BME280;39583;54.682;30.662;2023-02-25T18:07:29;96705.09;;;2.56;99.96
53689;BME280;39583;54.682;30.662;2023-02-25T18:09:58;96702.19;;;2.58;99.86
53689;BME280;39583;54.682;30.662;2023-02-25T18:12:28;96705.19;;;2.61;99.84
53689;BME280;39583;54.682;30.662;2023-02-25T18:15:00;96702.31;;;2.63;99.77
53689;BME280;39583;54.682;30.662;2023-02-25T18:17:38;96707.69;;;2.68;100.00
53689;BME280;39583;54.682;30.662;2023-02-25T18:22:52;96701.34;;;2.69;99.95
53689;BME280;39583;54.682;30.662;2023-02-25T18:25:44;96678.16;;;2.64;99.61
53689;BME280;39583;54.682;30.662;2023-02-25T18:28:19;96687.50;;;2.67;99.87
53689;BME280;39583;54.682;30.662;2023-02-25T18:30:49;96678.63;;;2.61;99.65
53689;BME280;39583;54.682;30.662;2023-02-25T18:33:16;96689.09;;;2.68;99.53
53689;BME280;39583;54.682;30.662;2023-02-25T18:35:44;96699.41;;;2.64;99.81
53689;BME280;39583;54.682;30.662;2023-02-25T18:38:20;96719.38;;;2.67;99.85
53689;BME280;39583;54.682;30.662;2023-02-25T18:40:48;96721.03;;;2.56;99.72
53689;BME280;39583;54.682;30.662;2023-02-25T18:43:16;96733.25;;;2.57;99.97
53689;BME280;39583;54.682;30.662;2023-02-25T18:45:43;96732.94;;;2.54;100.00
53689;BME280;39583;54.682;30.662;2023-02-25T18:48:10;96721.63;;;2.47;100.00
53689;BME280;39583;54.682;30.662;2023-02-25T18:50:38;96728.41;;;2.54;100.00
53689;BME280;39583;54.682;30.662;2023-02-25T18:53:14;96731.41;;;2.58;100.00
53689;BME280;39583;54.682;30.662;2023-02-25T18:55:42;96730.38;;;2.59;100.00
53689;BME280;39583;54.682;30.662;2023-02-25T18:58:12;96717.75;;;2.66;100.00
